Tiberius, Israel
Current Conditions -  °F | °C
As of 12:50 PM on Thursday 29 Jan 2015 (Local Time) from LLHA Reporting Station
Few Clouds Few Clouds  
Wind Chill: 66°   Ceiling: Unl
Heat Index: 66°   Visibility: 6mi
Dew Point: 41°   Wind: 10mph
Humidity: 40%   Direction: 160°SSE
Pressure: 29.94"   Gusts: NA
Location:  32.78°N, 35.48°E
Report Text: LLHA 290950Z 16009KT 120V190 9999 FEW035 19/05 Q1014
Loading
Personal Weather Stations






























Interactive Weather Map New forecast layout! Learn more

10-Day Weather Forecast

Advertisements
Track Severe Weather on mobile